Time;durP1;ratioP1;P1;durP2;ratioP2;P2;SDS_P1;SDS_P2;PMS_P1;PMS_P2;Temp;Humidity;BMP_temperature;BMP_pressure;BME280_temperature;BME280_humidity;BME280_pressure;Samples;Min_cycle;Max_cycle;Signal;HPM_P1;HPM_P2
2023/09/16 00:02:06;;;;;;;;;6.00;6.00;;;;;18.90;97.53;100997.00;5104395;27;45497;-75
2023/09/16 00:04:31;;;;;;;;;6.00;5.00;;;;;18.86;97.56;100987.47;5108077;27;45601;-75
2023/09/16 00:06:57;;;;;;;;;6.67;6.67;;;;;18.86;97.95;100988.34;5099385;27;46098;-76
2023/09/16 00:09:23;;;;;;;;;10.00;5.67;;;;;18.72;97.33;100973.34;5109410;27;45333;-75
2023/09/16 00:11:49;;;;;;;;;6.00;6.00;;;;;18.83;97.65;100993.09;5109819;27;45361;-75
2023/09/16 00:14:18;;;;;;;;;7.67;6.00;;;;;18.79;96.49;100984.44;5099900;27;45506;-75
2023/09/16 00:16:44;;;;;;;;;6.00;6.00;;;;;18.76;97.54;100987.34;5114578;27;47707;-75
2023/09/16 00:19:09;;;;;;;;;5.00;5.00;;;;;18.75;98.67;100992.84;5118755;27;45561;-75
2023/09/16 00:21:35;;;;;;;;;7.00;7.00;;;;;18.67;98.54;100986.25;5102143;27;46333;-75
2023/09/16 00:24:00;;;;;;;;;6.00;6.00;;;;;18.68;99.23;100982.56;5100022;27;46144;-76
2023/09/16 00:26:26;;;;;;;;;6.00;6.00;;;;;18.66;100.00;100989.91;5100549;27;45434;-75
2023/09/16 00:28:52;;;;;;;;;7.67;7.33;;;;;18.60;98.48;100978.81;5099694;27;45314;-76
2023/09/16 00:31:17;;;;;;;;;6.67;6.67;;;;;18.63;99.80;100981.25;5105504;27;45358;-76
2023/09/16 00:33:43;;;;;;;;;5.33;5.00;;;;;18.52;99.41;100968.66;5118560;27;45588;-75
2023/09/16 00:36:09;;;;;;;;;7.00;5.00;;;;;18.59;100.00;100982.44;5115311;27;45640;-75
2023/09/16 00:38:34;;;;;;;;;6.00;6.00;;;;;18.53;100.00;100973.06;5112314;27;45366;-75
2023/09/16 00:41:00;;;;;;;;;4.00;4.00;;;;;18.51;100.00;100967.00;5102749;27;45453;-76
2023/09/16 00:43:25;;;;;;;;;7.67;6.00;;;;;18.55;100.00;100981.00;5103913;27;45291;-75
2023/09/16 00:45:51;;;;;;;;;5.00;5.00;;;;;18.47;100.00;100956.59;5114999;27;46675;-75
2023/09/16 00:48:18;;;;;;;;;5.00;5.00;;;;;18.43;100.00;100955.97;5123005;27;45433;-75
2023/09/16 00:50:45;;;;;;;;;5.33;5.33;;;;;18.38;99.86;100958.16;5113812;27;45469;-75
2023/09/16 00:53:12;;;;;;;;;6.33;5.33;;;;;18.48;100.00;100969.88;5103352;27;45421;-75
2023/09/16 00:55:38;;;;;;;;;6.67;5.00;;;;;18.34;100.00;100943.28;5112988;27;46331;-75
2023/09/16 00:58:04;;;;;;;;;8.00;8.00;;;;;18.46;100.00;100966.44;5120986;27;45567;-75
2023/09/16 01:00:30;;;;;;;;;8.67;7.00;;;;;18.34;100.00;100948.66;5109299;27;45359;-75
2023/09/16 01:02:57;;;;;;;;;6.67;6.67;;;;;18.35;100.00;100949.50;5122375;27;45654;-76
2023/09/16 01:05:23;;;;;;;;;8.00;8.00;;;;;18.39;100.00;100956.34;5120795;27;46362;-75
2023/09/16 01:07:49;;;;;;;;;7.00;7.00;;;;;18.37;100.00;100958.25;5111443;27;45345;-75
2023/09/16 01:10:18;;;;;;;;;6.67;6.67;;;;;18.35;100.00;100950.38;5116262;27;45282;-75
2023/09/16 01:12:44;;;;;;;;;7.00;7.00;;;;;18.26;100.00;100943.00;5112413;27;45316;-75
2023/09/16 01:15:13;;;;;;;;;7.67;5.67;;;;;18.18;100.00;100921.34;5112243;27;46459;-75
2023/09/16 01:17:47;;;;;;;;;9.00;8.00;;;;;18.30;100.00;100951.66;5118150;27;45406;-75
2023/09/16 01:20:15;;;;;;;;;9.00;8.00;;;;;18.28;100.00;100950.94;5109016;27;45490;-75
2023/09/16 01:22:45;;;;;;;;;8.00;7.00;;;;;18.22;100.00;100957.63;5113801;27;45537;-76
2023/09/16 01:25:14;;;;;;;;;7.00;7.00;;;;;18.11;100.00;100939.69;5120924;27;45814;-75
2023/09/16 01:27:41;;;;;;;;;6.67;6.00;;;;;18.18;100.00;100953.47;5109005;27;46013;-76
2023/09/16 01:30:08;;;;;;;;;4.67;4.67;;;;;18.20;100.00;100956.88;5108103;27;45416;-75
2023/09/16 01:32:52;;;;;;;;;7.00;7.00;;;;;17.98;100.00;100913.97;5102609;27;45237;-75
2023/09/16 01:35:21;;;;;;;;;7.00;6.00;;;;;18.17;100.00;100957.13;5102570;27;45444;-75
2023/09/16 01:37:47;;;;;;;;;8.67;6.33;;;;;18.15;100.00;100954.56;5110240;27;45418;-76
2023/09/16 01:40:15;;;;;;;;;7.33;7.33;;;;;18.12;100.00;100946.78;5105541;27;45322;-75
2023/09/16 01:42:41;;;;;;;;;8.33;6.33;;;;;18.08;100.00;100939.09;5105465;27;45488;-75
2023/09/16 01:45:07;;;;;;;;;7.33;6.00;;;;;18.08;100.00;100939.94;5119925;27;47379;-75
2023/09/16 01:47:34;;;;;;;;;6.33;5.33;;;;;18.16;100.00;100942.88;5119701;27;45354;-76
2023/09/16 01:49:59;;;;;;;;;7.33;6.00;;;;;18.19;100.00;100944.47;5108948;27;45557;-76
2023/09/16 01:52:24;;;;;;;;;8.00;6.00;;;;;18.15;100.00;100935.84;5105869;27;45370;-75
2023/09/16 01:54:50;;;;;;;;;6.00;6.00;;;;;18.17;100.00;100949.06;5101684;27;51636;-75
2023/09/16 01:57:15;;;;;;;;;5.33;5.33;;;;;18.14;100.00;100944.81;5115436;27;46542;-75
2023/09/16 01:59:41;;;;;;;;;6.00;6.00;;;;;18.15;100.00;100951.91;5102137;27;45305;-75
2023/09/16 02:02:06;;;;;;;;;9.33;7.33;;;;;18.13;100.00;100943.09;5109448;27;45538;-75
2023/09/16 02:04:31;;;;;;;;;6.67;6.00;;;;;18.04;100.00;100925.06;5101552;27;47741;-75
2023/09/16 02:06:57;;;;;;;;;6.00;5.33;;;;;18.00;100.00;100918.25;5100850;27;45506;-75
2023/09/16 02:09:22;;;;;;;;;6.00;6.00;;;;;18.08;100.00;100929.22;5115595;27;48883;-75
2023/09/16 02:11:47;;;;;;;;;7.00;6.00;;;;;18.02;100.00;100913.66;5114240;27;45501;-76
2023/09/16 02:14:15;;;;;;;;;2.00;0.00;;;;;18.11;100.00;100933.50;5116463;27;48306;-75
2023/09/16 02:16:40;;;;;;;;;9.00;8.00;;;;;18.06;100.00;100920.44;5120276;27;45388;-75
2023/09/16 02:19:06;;;;;;;;;7.00;7.00;;;;;18.12;100.00;100922.69;5117706;27;45761;-75
2023/09/16 02:21:31;;;;;;;;;6.00;6.00;;;;;18.13;100.00;100923.50;5107708;27;47129;-75
2023/09/16 02:23:57;;;;;;;;;7.00;6.00;;;;;18.13;100.00;100924.38;5105901;27;45513;-76
2023/09/16 02:26:22;;;;;;;;;7.00;7.00;;;;;18.14;100.00;100922.53;5120658;27;45385;-75
2023/09/16 02:28:48;;;;;;;;;5.33;5.33;;;;;18.12;100.00;100921.81;5104237;27;45506;-75
2023/09/16 02:31:15;;;;;;;;;7.00;6.00;;;;;18.14;100.00;100920.72;5112229;27;53172;-76
2023/09/16 02:33:40;;;;;;;;;9.00;6.00;;;;;18.10;100.00;100907.69;5124160;27;45351;-75
2023/09/16 02:36:07;;;;;;;;;5.67;5.67;;;;;18.14;100.00;100919.88;5118517;27;45340;-76
2023/09/16 02:38:32;;;;;;;;;8.00;7.00;;;;;18.07;100.00;100905.25;5108300;27;45324;-75
2023/09/16 02:40:57;;;;;;;;;9.33;6.00;;;;;18.13;100.00;100915.47;5110790;27;45512;-75
2023/09/16 02:43:23;;;;;;;;;7.00;5.33;;;;;18.14;100.00;100906.50;5111554;27;45503;-75
2023/09/16 02:45:48;;;;;;;;;6.00;6.00;;;;;18.10;100.00;100895.16;5117226;27;46407;-75
2023/09/16 02:48:18;;;;;;;;;5.67;5.67;;;;;18.09;100.00;100898.81;5122561;27;44679;-75
2023/09/16 02:50:45;;;;;;;;;7.00;7.00;;;;;18.12;100.00;100903.09;5115139;27;45301;-75
2023/09/16 02:53:11;;;;;;;;;6.00;6.00;;;;;18.10;100.00;100900.50;5101079;27;45406;-75
2023/09/16 02:55:36;;;;;;;;;4.67;4.67;;;;;18.12;100.00;100914.66;5101567;27;45460;-75
2023/09/16 02:58:02;;;;;;;;;4.00;3.33;;;;;18.11;100.00;100910.25;5105451;27;45369;-75
2023/09/16 03:00:27;;;;;;;;;9.00;7.67;;;;;18.09;100.00;100912.22;5121004;27;45320;-75
2023/09/16 03:02:53;;;;;;;;;7.33;5.67;;;;;18.07;100.00;100900.75;5105401;27;46942;-75
2023/09/16 03:05:19;;;;;;;;;8.33;7.00;;;;;18.14;100.00;100912.69;5100858;27;45360;-75
2023/09/16 03:07:44;;;;;;;;;8.00;6.33;;;;;18.12;100.00;100906.63;5115013;27;45298;-75
2023/09/16 03:10:10;;;;;;;;;5.33;5.33;;;;;18.10;100.00;100888.94;5113320;27;45351;-75
2023/09/16 03:12:36;;;;;;;;;4.67;4.67;;;;;18.10;100.00;100896.97;5107224;27;46286;-75
2023/09/16 03:15:01;;;;;;;;;6.00;6.00;;;;;18.15;100.00;100892.13;5119845;27;45263;-75
2023/09/16 03:17:26;;;;;;;;;7.33;6.00;;;;;18.15;100.00;100903.72;5105357;27;45540;-75
2023/09/16 03:19:52;;;;;;;;;6.67;6.67;;;;;18.12;100.00;100906.63;5106519;27;45303;-75
2023/09/16 03:22:18;;;;;;;;;8.00;7.00;;;;;18.07;100.00;100884.69;5108736;27;46057;-75
2023/09/16 03:24:43;;;;;;;;;7.00;7.00;;;;;18.14;100.00;100904.66;5100427;27;45295;-75
2023/09/16 03:27:09;;;;;;;;;7.00;7.00;;;;;18.11;100.00;100902.22;5119545;27;45405;-75
2023/09/16 03:29:34;;;;;;;;;5.67;5.67;;;;;18.01;100.00;100893.19;5108249;27;45511;-75
2023/09/16 03:31:59;;;;;;;;;6.00;5.00;;;;;18.10;100.00;100907.69;5101974;27;45405;-75
2023/09/16 03:34:25;;;;;;;;;5.00;5.00;;;;;18.04;100.00;100895.63;5100175;27;45634;-76
2023/09/16 03:36:51;;;;;;;;;5.67;5.67;;;;;18.05;100.00;100885.78;5104729;27;45511;-76
2023/09/16 03:39:16;;;;;;;;;6.00;6.00;;;;;18.02;100.00;100886.03;5101053;27;45454;-75
2023/09/16 03:41:41;;;;;;;;;6.67;6.67;;;;;18.06;100.00;100884.81;5109778;27;45408;-75
2023/09/16 03:44:07;;;;;;;;;8.00;6.33;;;;;17.99;100.00;100871.06;5101166;27;45391;-75
2023/09/16 03:46:32;;;;;;;;;7.33;6.00;;;;;17.93;100.00;100860.78;5100889;27;45599;-75
2023/09/16 03:48:58;;;;;;;;;7.00;7.00;;;;;17.94;100.00;100864.34;5101099;27;45378;-75
2023/09/16 03:51:26;;;;;;;;;9.00;6.00;;;;;18.00;100.00;100872.75;5097705;27;46055;-75
2023/09/16 03:53:52;;;;;;;;;7.00;7.00;;;;;18.01;100.00;100876.28;5113202;27;45311;-77
2023/09/16 03:56:18;;;;;;;;;10.67;8.67;;;;;17.98;100.00;100871.16;5105723;27;45418;-75
2023/09/16 03:58:43;;;;;;;;;10.00;10.00;;;;;17.95;100.00;100868.72;5118706;27;49291;-76
2023/09/16 04:01:08;;;;;;;;;10.67;10.67;;;;;17.88;100.00;100865.66;5113259;27;48719;-75
2023/09/16 04:03:34;;;;;;;;;16.00;15.00;;;;;17.93;100.00;100882.22;5107953;27;45281;-76
2023/09/16 04:05:59;;;;;;;;;12.67;12.33;;;;;17.91;100.00;100880.63;5101665;27;45685;-75
2023/09/16 04:08:26;;;;;;;;;10.33;9.00;;;;;17.89;100.00;100875.41;5100948;27;45403;-76
2023/09/16 04:10:52;;;;;;;;;18.67;17.33;;;;;17.89;100.00;100869.19;5112570;27;46172;-75
2023/09/16 04:13:17;;;;;;;;;17.00;15.33;;;;;17.79;100.00;100861.03;5109575;27;45392;-76
2023/09/16 04:15:43;;;;;;;;;16.67;14.00;;;;;17.84;100.00;100871.34;5119441;27;45600;-76
2023/09/16 04:18:08;;;;;;;;;16.33;15.00;;;;;17.82;100.00;100874.16;5118569;27;44779;-75
2023/09/16 04:20:34;;;;;;;;;16.33;15.33;;;;;17.81;100.00;100869.78;5108828;27;46289;-75
2023/09/16 04:22:59;;;;;;;;;18.00;16.33;;;;;17.80;100.00;100864.56;5110935;27;46939;-75
2023/09/16 04:25:24;;;;;;;;;15.00;15.00;;;;;17.76;100.00;100861.25;5103758;27;45331;-76
2023/09/16 04:27:50;;;;;;;;;16.00;14.33;;;;;17.74;100.00;100851.63;5111685;27;45733;-75
2023/09/16 04:30:15;;;;;;;;;14.00;13.00;;;;;17.77;100.00;100862.13;5120647;27;50076;-75
2023/09/16 04:32:40;;;;;;;;;13.50;12.50;;;;;17.65;100.00;100846.00;5107007;27;45353;-75
2023/09/16 04:35:06;;;;;;;;;9.67;9.67;;;;;17.74;100.00;100855.16;5118150;27;45309;-75
2023/09/16 04:37:32;;;;;;;;;14.00;11.00;;;;;17.63;100.00;100841.75;5111159;27;45341;-75
2023/09/16 04:39:57;;;;;;;;;13.33;13.00;;;;;17.57;100.00;100840.38;5115944;27;46129;-75
2023/09/16 04:42:30;;;;;;;;;15.33;11.00;;;;;17.66;100.00;100854.91;5099859;27;45266;-76
2023/09/16 04:44:55;;;;;;;;;13.00;10.33;;;;;17.65;100.00;100855.84;5099880;27;45351;-75
2023/09/16 04:47:21;;;;;;;;;9.00;7.00;;;;;17.56;100.00;100843.19;5113340;27;45511;-75
2023/09/16 04:49:48;;;;;;;;;8.00;8.00;;;;;17.59;100.00;100851.84;5105762;27;46144;-75
2023/09/16 04:52:13;;;;;;;;;10.00;8.67;;;;;17.51;100.00;100845.31;5111044;27;45477;-76
2023/09/16 04:54:39;;;;;;;;;11.67;10.00;;;;;17.50;100.00;100871.22;5120071;27;45248;-75
2023/09/16 04:57:04;;;;;;;;;9.00;7.67;;;;;17.51;100.00;100858.66;5104509;27;53361;-75
2023/09/16 04:59:33;;;;;;;;;9.33;9.33;;;;;17.46;100.00;100856.38;5099034;27;45454;-75
2023/09/16 05:01:59;;;;;;;;;11.33;10.00;;;;;17.41;100.00;100861.19;5099873;27;45432;-76
2023/09/16 05:04:24;;;;;;;;;8.67;8.67;;;;;17.39;100.00;100860.47;5099974;27;45430;-75
2023/09/16 05:06:49;;;;;;;;;13.67;9.33;;;;;17.32;100.00;100851.19;5099014;27;52503;-75
2023/09/16 05:09:15;;;;;;;;;8.00;8.00;;;;;17.33;100.00;100860.06;5099085;27;45872;-76
2023/09/16 05:11:40;;;;;;;;;8.67;7.00;;;;;17.40;100.00;100867.53;5111507;27;45266;-75
2023/09/16 05:14:05;;;;;;;;;8.00;8.00;;;;;17.41;100.00;100873.69;5106344;27;45338;-75
2023/09/16 05:16:31;;;;;;;;;7.67;7.00;;;;;17.41;100.00;100873.69;5118551;27;45335;-76
2023/09/16 05:18:56;;;;;;;;;9.33;9.33;;;;;17.28;100.00;100860.38;5114731;27;45438;-75
2023/09/16 05:21:21;;;;;;;;;8.00;8.00;;;;;17.41;100.00;100877.22;5099197;27;45679;-75
2023/09/16 05:23:46;;;;;;;;;8.00;8.00;;;;;17.40;100.00;100875.53;5112784;27;45386;-76
2023/09/16 05:26:13;;;;;;;;;6.00;5.00;;;;;17.09;100.00;100842.19;5097378;27;45430;-76
2023/09/16 05:28:39;;;;;;;;;7.67;7.00;;;;;17.39;100.00;100889.00;5097227;27;46989;-75
2023/09/16 05:31:04;;;;;;;;;8.00;8.00;;;;;17.29;100.00;100879.97;5097326;27;45252;-75
2023/09/16 05:33:30;;;;;;;;;8.67;8.67;;;;;17.33;100.00;100881.44;5098938;27;45372;-75
2023/09/16 05:35:55;;;;;;;;;12.33;6.00;;;;;17.31;100.00;100886.06;5114906;27;45755;-75
2023/09/16 05:38:21;;;;;;;;;7.00;7.00;;;;;17.22;100.00;100876.88;5105829;27;46309;-74
2023/09/16 05:40:46;;;;;;;;;9.33;7.00;;;;;17.28;100.00;100883.59;5113591;27;45472;-74
2023/09/16 05:43:11;;;;;;;;;7.00;7.00;;;;;17.23;100.00;100873.25;5114131;27;45269;-75
2023/09/16 05:45:37;;;;;;;;;9.00;9.00;;;;;17.34;100.00;100893.84;5120172;27;45355;-74
2023/09/16 05:48:04;;;;;;;;;7.33;7.00;;;;;17.32;100.00;100906.47;5102765;27;46546;-74
2023/09/16 05:50:30;;;;;;;;;8.67;8.67;;;;;17.33;100.00;100909.03;5107253;27;45558;-75
2023/09/16 05:52:55;;;;;;;;;6.00;6.00;;;;;17.25;100.00;100887.34;5101145;27;45434;-74
2023/09/16 05:55:20;;;;;;;;;9.00;9.00;;;;;17.12;100.00;100870.50;5102531;27;45297;-74
2023/09/16 05:57:46;;;;;;;;;7.33;6.33;;;;;17.29;100.00;100890.66;5108021;27;45368;-75
2023/09/16 06:00:11;;;;;;;;;12.33;9.33;;;;;17.39;100.00;100900.56;5109823;27;49319;-75
2023/09/16 06:02:39;;;;;;;;;9.00;8.67;;;;;17.39;100.00;100897.03;5105923;27;45494;-75
2023/09/16 06:05:06;;;;;;;;;8.00;8.00;;;;;17.40;100.00;100896.06;5105601;27;45229;-75
2023/09/16 06:07:31;;;;;;;;;7.33;7.33;;;;;17.47;100.00;100902.69;5118498;27;45289;-76
2023/09/16 06:09:57;;;;;;;;;6.33;6.33;;;;;17.51;100.00;100901.47;5117205;27;45373;-76
2023/09/16 06:12:22;;;;;;;;;11.67;9.33;;;;;17.46;100.00;100901.81;5119724;27;48672;-75
2023/09/16 06:14:47;;;;;;;;;8.00;7.00;;;;;17.60;100.00;100924.91;5122306;27;54381;-75
2023/09/16 06:17:13;;;;;;;;;7.00;7.00;;;;;17.56;100.00;100904.69;5122239;27;50871;-75
2023/09/16 06:19:39;;;;;;;;;8.33;7.33;;;;;17.67;100.00;100923.47;5113659;27;45710;-75
2023/09/16 06:22:04;;;;;;;;;9.00;9.00;;;;;17.74;100.00;100929.19;5110414;27;45597;-74
2023/09/16 06:24:29;;;;;;;;;8.67;7.00;;;;;17.75;100.00;100920.22;5101376;27;47406;-74
2023/09/16 06:26:55;;;;;;;;;12.33;10.67;;;;;17.79;100.00;100909.19;5099882;27;46597;-75
2023/09/16 06:29:20;;;;;;;;;10.33;9.33;;;;;17.60;100.00;100882.94;5122295;27;45320;-75
2023/09/16 06:31:45;;;;;;;;;8.33;8.33;;;;;17.83;100.00;100907.13;5120959;27;45484;-74
2023/09/16 06:34:11;;;;;;;;;0.67;0.67;;;;;17.98;100.00;100930.91;5115947;27;45282;-74
2023/09/16 06:36:39;;;;;;;;;10.33;9.00;;;;;18.02;100.00;100927.03;5105450;27;45500;-75
2023/09/16 06:39:07;;;;;;;;;9.00;9.00;;;;;18.09;100.00;100938.97;5134567;27;45329;-75
2023/09/16 06:41:32;;;;;;;;;10.67;9.00;;;;;17.96;100.00;100905.22;5101394;27;45416;-77
2023/09/16 06:43:58;;;;;;;;;9.00;9.00;;;;;18.14;100.00;100933.25;5124427;27;45462;-77
2023/09/16 06:46:23;;;;;;;;;10.00;9.00;;;;;18.21;100.00;100937.19;5101551;27;45334;-77
2023/09/16 06:48:48;;;;;;;;;9.00;8.00;;;;;18.22;100.00;100942.41;5103544;27;45311;-77
2023/09/16 06:51:14;;;;;;;;;10.33;8.67;;;;;18.26;100.00;100931.47;5099794;27;45414;-76
2023/09/16 06:53:39;;;;;;;;;10.00;8.67;;;;;18.23;100.00;100933.41;5109344;27;45342;-76
2023/09/16 06:56:04;;;;;;;;;9.00;9.00;;;;;18.34;100.00;100934.41;5106725;27;45453;-77
2023/09/16 06:58:30;;;;;;;;;10.67;10.67;;;;;18.31;100.00;100919.44;5100890;27;45368;-76
2023/09/16 07:00:55;;;;;;;;;9.67;9.67;;;;;18.42;100.00;100932.81;5114663;27;45363;-76
2023/09/16 07:03:21;;;;;;;;;12.67;10.67;;;;;18.36;100.00;100906.53;5120758;27;45510;-76
2023/09/16 07:05:49;;;;;;;;;9.00;9.00;;;;;18.47;100.00;100913.72;5110855;27;46240;-74
2023/09/16 07:08:17;;;;;;;;;9.00;7.33;;;;;18.55;100.00;100922.06;5110769;27;45459;-77
2023/09/16 07:10:42;;;;;;;;;9.67;9.67;;;;;18.57;100.00;100920.97;5101936;27;45387;-76
2023/09/16 07:13:07;;;;;;;;;11.00;8.00;;;;;18.38;100.00;100885.00;5118738;27;45456;-77
2023/09/16 07:15:33;;;;;;;;;10.67;10.67;;;;;18.67;100.00;100921.09;5109689;27;50773;-76
2023/09/16 07:17:58;;;;;;;;;10.00;10.00;;;;;18.68;100.00;100920.13;5103035;27;45431;-77
2023/09/16 07:20:24;;;;;;;;;10.00;9.33;;;;;18.71;100.00;100915.38;5112504;27;45454;-76
2023/09/16 07:22:51;;;;;;;;;11.00;11.00;;;;;18.80;100.00;100915.59;5107161;27;45407;-76
2023/09/16 07:25:16;;;;;;;;;16.00;14.00;;;;;18.87;100.00;100919.50;5106181;27;46180;-77
2023/09/16 07:27:42;;;;;;;;;10.00;9.33;;;;;18.91;100.00;100916.47;5112386;27;45224;-76
2023/09/16 07:30:07;;;;;;;;;16.33;12.33;;;;;18.96;100.00;100916.09;5108324;27;45274;-77
2023/09/16 07:32:33;;;;;;;;;10.67;9.33;;;;;18.91;100.00;100889.69;5110705;27;45546;-77
2023/09/16 07:34:58;;;;;;;;;10.00;9.00;;;;;19.00;100.00;100901.47;5107401;27;49831;-76
2023/09/16 07:37:23;;;;;;;;;11.33;11.33;;;;;19.04;100.00;100909.13;5109461;27;45444;-76
2023/09/16 07:39:51;;;;;;;;;13.33;12.00;;;;;19.20;100.00;100922.16;5104005;27;45326;-77
2023/09/16 07:42:16;;;;;;;;;10.67;9.67;;;;;19.21;100.00;100913.97;5108097;27;45378;-74
2023/09/16 07:44:41;;;;;;;;;14.00;11.33;;;;;19.34;100.00;100923.72;5112361;27;45304;-74
2023/09/16 07:47:06;;;;;;;;;13.00;11.67;;;;;19.45;100.00;100926.41;5119075;27;45741;-74
2023/09/16 07:49:32;;;;;;;;;13.67;10.67;;;;;19.47;100.00;100919.09;5105818;27;45362;-76
2023/09/16 07:51:57;;;;;;;;;15.33;11.33;;;;;19.57;100.00;100926.25;5119208;27;45337;-76
2023/09/16 07:54:22;;;;;;;;;13.33;13.33;;;;;19.60;100.00;100930.53;5101509;27;50401;-76
2023/09/16 07:56:48;;;;;;;;;12.00;10.33;;;;;19.76;99.35;100936.31;5105886;27;50081;-76
2023/09/16 07:59:19;;;;;;;;;11.00;10.67;;;;;19.74;100.00;100928.38;5117805;27;45447;-76
2023/09/16 08:01:44;;;;;;;;;14.00;12.00;;;;;19.84;100.00;100923.09;5111734;27;45488;-74
2023/09/16 08:04:10;;;;;;;;;12.00;12.00;;;;;19.98;100.00;100940.75;5104340;27;46016;-77
2023/09/16 08:06:35;;;;;;;;;13.33;12.33;;;;;20.10;99.10;100939.69;5102645;27;45353;-76
2023/09/16 08:09:00;;;;;;;;;14.33;12.00;;;;;20.16;99.47;100940.03;5117862;27;45427;-76
2023/09/16 08:11:26;;;;;;;;;12.67;12.67;;;;;20.17;99.96;100927.44;5120990;27;45348;-76
2023/09/16 08:13:51;;;;;;;;;10.67;10.67;;;;;20.27;98.01;100923.88;5119705;27;46955;-76
2023/09/16 08:16:17;;;;;;;;;10.00;10.00;;;;;20.41;95.37;100925.41;5119441;27;51752;-76
2023/09/16 08:18:42;;;;;;;;;13.33;12.67;;;;;20.50;97.12;100916.53;5101283;27;45440;-77
2023/09/16 08:21:07;;;;;;;;;11.67;11.00;;;;;20.62;94.83;100934.28;5105323;27;45482;-76
2023/09/16 08:23:32;;;;;;;;;10.00;9.33;;;;;20.73;94.57;100933.34;5100125;27;45605;-76
2023/09/16 08:25:58;;;;;;;;;11.33;11.33;;;;;20.81;93.66;100935.38;5106867;27;45507;-76
2023/09/16 08:28:23;;;;;;;;;9.00;8.00;;;;;20.88;94.11;100940.06;5107473;27;45336;-75
2023/09/16 08:30:48;;;;;;;;;14.67;14.00;;;;;20.87;93.13;100922.25;5106443;27;47121;-75
2023/09/16 08:33:14;;;;;;;;;13.67;13.67;;;;;20.97;92.83;100928.50;5105258;27;46288;-75
2023/09/16 08:35:39;;;;;;;;;11.00;10.33;;;;;21.11;93.08;100936.22;5108291;27;45352;-74
2023/09/16 08:38:05;;;;;;;;;14.33;11.00;;;;;21.18;90.88;100928.44;5106575;27;45496;-75
2023/09/16 08:40:32;;;;;;;;;11.33;11.33;;;;;21.25;91.15;100927.78;5099732;27;45275;-75
2023/09/16 08:43:13;;;;;;;;;15.00;14.00;;;;;21.40;92.21;100927.41;5117232;27;46176;-74
2023/09/16 08:45:44;;;;;;;;;15.00;12.67;;;;;21.43;88.81;100924.44;5100077;27;45524;-75
2023/09/16 08:48:14;;;;;;;;;12.00;10.67;;;;;21.53;90.29;100936.88;5103097;27;45367;-75
2023/09/16 08:50:40;;;;;;;;;11.33;11.33;;;;;21.53;89.93;100903.75;5100069;27;45346;-75
2023/09/16 08:53:10;;;;;;;;;14.33;11.33;;;;;21.77;90.20;100923.03;5112988;27;46110;-75
2023/09/16 08:55:36;;;;;;;;;12.33;10.67;;;;;21.87;88.55;100926.59;5099193;27;45572;-75
2023/09/16 08:58:08;;;;;;;;;11.67;11.00;;;;;21.97;90.39;100930.16;5100094;27;45383;-75
2023/09/16 09:00:35;;;;;;;;;14.67;12.00;;;;;22.01;87.81;100918.13;5111801;27;45879;-75
2023/09/16 09:03:00;;;;;;;;;12.67;12.67;;;;;22.19;87.34;100931.69;5113059;27;45495;-75
2023/09/16 09:05:27;;;;;;;;;17.67;13.00;;;;;22.23;84.93;100925.03;5112745;27;45481;-75
2023/09/16 09:07:53;;;;;;;;;14.00;14.00;;;;;22.34;83.97;100924.88;5100184;27;45323;-74
2023/09/16 09:10:18;;;;;;;;;14.67;14.00;;;;;22.41;82.89;100923.31;5117102;27;45452;-75
2023/09/16 09:12:44;;;;;;;;;10.67;10.33;;;;;22.52;84.85;100931.22;5118647;27;46436;-75
2023/09/16 09:15:12;;;;;;;;;15.33;14.33;;;;;22.66;85.19;100925.41;5120983;27;45371;-75
2023/09/16 09:17:39;;;;;;;;;11.67;10.67;;;;;22.75;80.32;100919.13;5114878;27;45309;-75
2023/09/16 09:20:09;;;;;;;;;13.33;12.33;;;;;22.91;85.44;100929.25;5115780;27;45465;-75
2023/09/16 09:22:38;;;;;;;;;13.67;13.67;;;;;22.96;79.37;100924.28;5113191;27;46623;-75
2023/09/16 09:25:04;;;;;;;;;18.67;15.33;;;;;23.04;82.30;100928.91;5111170;27;45226;-75
2023/09/16 09:27:29;;;;;;;;;13.33;13.33;;;;;23.06;78.68;100908.91;5113456;27;45309;-75
2023/09/16 09:29:54;;;;;;;;;13.00;12.33;;;;;23.10;79.10;100902.19;5111618;27;45361;-75
2023/09/16 09:32:21;;;;;;;;;6.33;6.00;;;;;23.25;78.94;100922.28;5106377;27;45297;-75
2023/09/16 09:34:46;;;;;;;;;12.00;11.00;;;;;23.38;78.30;100924.63;5106498;27;45486;-75
2023/09/16 09:37:18;;;;;;;;;12.00;10.67;;;;;23.40;77.68;100929.88;5102851;27;45373;-75
2023/09/16 09:39:45;;;;;;;;;13.33;12.33;;;;;23.42;79.96;100920.66;5113012;27;45449;-75
2023/09/16 09:42:18;;;;;;;;;13.33;13.33;;;;;23.49;77.06;100921.75;5105438;27;45395;-75
2023/09/16 09:44:45;;;;;;;;;13.00;12.00;;;;;23.54;75.81;100913.19;5117050;27;45398;-75
2023/09/16 09:47:12;;;;;;;;;11.00;10.67;;;;;23.55;78.78;100914.91;5102680;27;45665;-75
2023/09/16 09:49:38;;;;;;;;;15.00;13.00;;;;;23.69;76.64;100920.59;5102624;27;45393;-75
2023/09/16 09:52:04;;;;;;;;;13.00;13.00;;;;;23.73;78.20;100908.50;5102740;27;45410;-75
2023/09/16 09:54:30;;;;;;;;;14.00;12.00;;;;;23.74;77.21;100912.91;5101839;27;45434;-75
2023/09/16 09:56:56;;;;;;;;;14.00;12.00;;;;;23.75;76.98;100911.06;5118220;27;45264;-75
2023/09/16 09:59:21;;;;;;;;;11.00;11.00;;;;;23.70;76.80;100900.69;5122921;27;45411;-75
2023/09/16 10:01:47;;;;;;;;;11.67;11.00;;;;;23.72;75.44;100906.78;5118903;27;46592;-75
2023/09/16 10:04:13;;;;;;;;;10.00;9.00;;;;;23.83;76.76;100916.50;5109292;27;45742;-75
2023/09/16 10:06:38;;;;;;;;;9.00;9.00;;;;;23.81;78.05;100903.19;5119669;27;45315;-75
2023/09/16 10:09:05;;;;;;;;;12.00;12.00;;;;;23.94;76.97;100897.38;5106917;27;45526;-75
2023/09/16 10:11:32;;;;;;;;;12.33;11.67;;;;;24.03;78.03;100909.94;5117640;27;45460;-75
2023/09/16 10:13:59;;;;;;;;;10.67;9.67;;;;;24.14;78.35;100907.03;5107212;27;45373;-75
2023/09/16 10:16:24;;;;;;;;;11.00;9.67;;;;;24.21;77.87;100899.97;5103675;27;45349;-75
2023/09/16 10:18:50;;;;;;;;;9.33;9.00;;;;;24.30;79.39;100882.81;5104997;27;45585;-75
2023/09/16 10:21:15;;;;;;;;;11.33;10.00;;;;;24.48;76.06;100908.94;5106701;27;45299;-75
2023/09/16 10:23:41;;;;;;;;;10.00;10.00;;;;;24.53;73.83;100901.22;5113505;27;45294;-75
2023/09/16 10:26:08;;;;;;;;;12.67;11.67;;;;;24.51;73.73;100893.25;5107567;27;45423;-75
2023/09/16 10:28:43;;;;;;;;;11.67;10.00;;;;;24.52;73.96;100886.00;5119852;27;45413;-75
2023/09/16 10:31:09;;;;;;;;;10.00;9.00;;;;;24.58;75.02;100891.59;5102257;27;45456;-75
2023/09/16 10:33:35;;;;;;;;;11.00;11.00;;;;;24.61;73.34;100899.41;5106049;27;45504;-75
2023/09/16 10:36:00;;;;;;;;;15.33;14.00;;;;;24.49;71.90;100875.50;5100952;27;45504;-75
2023/09/16 10:38:27;;;;;;;;;9.00;9.00;;;;;24.61;72.58;100888.56;5114466;27;45343;-75
2023/09/16 10:40:53;;;;;;;;;10.67;9.00;;;;;24.80;72.86;100917.28;5107842;27;45340;-75
2023/09/16 10:43:19;;;;;;;;;11.00;11.00;;;;;24.83;77.58;100903.47;5118896;27;45528;-75
2023/09/16 10:45:45;;;;;;;;;13.00;11.67;;;;;24.95;72.99;100907.56;5106572;27;45353;-75
2023/09/16 10:48:11;;;;;;;;;11.33;10.00;;;;;25.01;71.88;100906.06;5109242;27;45211;-75
2023/09/16 10:50:38;;;;;;;;;12.00;12.00;;;;;25.03;70.79;100899.47;5109377;27;54263;-75
2023/09/16 10:53:26;;;;;;;;;12.00;11.00;;;;;25.09;71.88;100901.53;5110340;27;45423;-75
2023/09/16 10:55:54;;;;;;;;;13.00;13.00;;;;;25.21;76.35;100905.63;5117883;27;45460;-75
2023/09/16 10:58:41;;;;;;;;;12.00;10.00;;;;;25.24;72.58;100908.03;5111774;27;45268;-75
2023/09/16 11:01:08;;;;;;;;;12.67;10.00;;;;;25.26;70.44;100895.16;5115076;27;45519;-76
2023/09/16 11:03:39;;;;;;;;;12.33;12.33;;;;;25.28;70.02;100893.16;5105131;27;45350;-76
2023/09/16 11:06:05;;;;;;;;;11.33;10.00;;;;;25.28;69.85;100895.00;5121094;27;45429;-75
2023/09/16 11:08:31;;;;;;;;;10.67;10.00;;;;;25.35;72.60;100898.75;5131390;27;45291;-75